Time;durP1;ratioP1;P1;durP2;ratioP2;P2;SDS_P1;SDS_P2;PMS_P1;PMS_P2;Temp;Humidity;BMP_temperature;BMP_pressure;BME280_temperature;BME280_humidity;BME280_pressure;Samples;Min_cycle;Max_cycle;Signal;HPM_P1;HPM_P2
2022/06/13 00:00:51;;;;;;;45.00;7.70;;;;;;;;;;4935891;29;20051;-72
2022/06/13 00:03:17;;;;;;;24.15;6.68;;;;;;;;;;4935697;29;20031;-72
2022/06/13 00:05:44;;;;;;;26.05;6.82;;;;;;;;;;4935044;29;20050;-72
2022/06/13 00:08:10;;;;;;;38.38;8.35;;;;;;;;;;4934965;29;20040;-72
2022/06/13 00:10:37;;;;;;;42.42;8.43;;;;;;;;;;4935308;29;20057;-72
2022/06/13 00:13:04;;;;;;;23.60;7.15;;;;;;;;;;4935783;29;20055;-71
2022/06/13 00:15:31;;;;;;;13.20;7.30;;;;;;;;;;4936714;29;20119;-73
2022/06/13 00:17:57;;;;;;;45.65;8.75;;;;;;;;;;4942251;29;20043;-72
2022/06/13 00:20:24;;;;;;;25.05;7.70;;;;;;;;;;4935359;29;20481;-72
2022/06/13 00:22:50;;;;;;;32.00;8.32;;;;;;;;;;4935396;29;20122;-72
2022/06/13 00:25:17;;;;;;;23.42;7.43;;;;;;;;;;4935841;29;20508;-72
2022/06/13 00:27:44;;;;;;;20.10;7.03;;;;;;;;;;4935597;29;20071;-70
2022/06/13 00:30:11;;;;;;;25.77;7.15;;;;;;;;;;4934908;29;20044;-75
2022/06/13 00:32:37;;;;;;;27.42;6.72;;;;;;;;;;4934662;29;20047;-73
2022/06/13 00:35:04;;;;;;;21.08;7.10;;;;;;;;;;4934396;29;20126;-73
2022/06/13 00:37:31;;;;;;;34.83;7.57;;;;;;;;;;4934602;29;20458;-73
2022/06/13 00:39:57;;;;;;;17.85;7.22;;;;;;;;;;4936674;29;20050;-70
2022/06/13 00:42:25;;;;;;;16.92;6.28;;;;;;;;;;4919604;29;20067;-73
2022/06/13 00:45:10;;;;;;;26.92;7.20;;;;;;;;;;4935105;29;20043;-72
2022/06/13 00:47:37;;;;;;;23.58;8.02;;;;;;;;;;4934872;29;20095;-72
2022/06/13 00:50:06;;;;;;;19.90;6.80;;;;;;;;;;4936160;29;20071;-73
2022/06/13 00:52:42;;;;;;;38.67;6.75;;;;;;;;;;4935784;29;20465;-70
2022/06/13 00:55:11;;;;;;;14.93;5.55;;;;;;;;;;4934996;29;20126;-72
2022/06/13 00:57:38;;;;;;;20.27;7.05;;;;;;;;;;4934600;29;20047;-72
2022/06/13 01:00:07;;;;;;;18.00;6.45;;;;;;;;;;4934753;29;20044;-70
2022/06/13 01:02:34;;;;;;;39.33;7.25;;;;;;;;;;4934629;29;20047;-71
2022/06/13 01:05:00;;;;;;;30.38;7.57;;;;;;;;;;4934261;29;20386;-73
2022/06/13 01:07:27;;;;;;;22.67;6.82;;;;;;;;;;4933979;29;20465;-73
2022/06/13 01:12:39;;;;;;;17.83;6.25;;;;;;;;;;4934241;29;20055;-69
2022/06/13 01:15:24;;;;;;;21.20;6.05;;;;;;;;;;4933907;29;20134;-76
2022/06/13 01:17:53;;;;;;;28.17;6.60;;;;;;;;;;4934106;29;20035;-75
2022/06/13 01:20:26;;;;;;;37.22;6.75;;;;;;;;;;4934417;29;20493;-74
2022/06/13 01:22:58;;;;;;;137.05;14.18;;;;;;;;;;4934273;29;20031;-75
2022/06/13 01:25:24;;;;;;;27.75;7.07;;;;;;;;;;4934587;29;20532;-74
2022/06/13 01:28:11;;;;;;;40.45;8.18;;;;;;;;;;4934289;29;20079;-74
2022/06/13 01:30:50;;;;;;;34.60;8.63;;;;;;;;;;4908491;29;20164;-72
2022/06/13 01:33:29;;;;;;;29.63;9.07;;;;;;;;;;4908452;29;20063;-64
2022/06/13 01:36:06;;;;;;;42.10;9.82;;;;;;;;;;4903664;29;20107;-70
2022/06/13 01:38:40;;;;;;;30.85;8.73;;;;;;;;;;4898978;29;20498;-78
2022/06/13 01:41:14;;;;;;;25.23;8.95;;;;;;;;;;4917213;29;20131;-75
2022/06/13 01:43:41;;;;;;;41.55;10.85;;;;;;;;;;4933738;29;20048;-76
2022/06/13 01:46:16;;;;;;;23.63;8.60;;;;;;;;;;4934828;29;20500;-77
2022/06/13 01:48:58;;;;;;;48.22;12.20;;;;;;;;;;4930822;29;20083;-77
2022/06/13 01:51:28;;;;;;;18.42;7.80;;;;;;;;;;4928377;29;20134;-77
2022/06/13 01:54:14;;;;;;;37.78;8.73;;;;;;;;;;4930732;29;20452;-77
2022/06/13 01:56:58;;;;;;;33.00;8.93;;;;;;;;;;4931835;29;20138;-78
2022/06/13 01:59:45;;;;;;;26.42;6.97;;;;;;;;;;4933256;29;20050;-79
2022/06/13 02:02:23;;;;;;;20.25;6.93;;;;;;;;;;4906587;29;20477;-78
2022/06/13 02:04:59;;;;;;;28.23;8.13;;;;;;;;;;4932771;29;20040;-68
2022/06/13 02:07:31;;;;;;;25.52;8.20;;;;;;;;;;4936226;29;20055;-72
2022/06/13 02:10:10;;;;;;;32.03;9.27;;;;;;;;;;4936143;29;20136;-76
2022/06/13 02:12:37;;;;;;;28.60;9.30;;;;;;;;;;4936855;29;20053;-73
2022/06/13 02:15:04;;;;;;;28.33;9.20;;;;;;;;;;4936982;29;20083;-73
2022/06/13 02:17:35;;;;;;;31.48;8.80;;;;;;;;;;4937123;29;20126;-72
2022/06/13 02:20:16;;;;;;;24.90;7.28;;;;;;;;;;4937598;29;20425;-72
2022/06/13 02:22:45;;;;;;;38.78;9.35;;;;;;;;;;4937160;29;20044;-69
2022/06/13 02:25:19;;;;;;;29.20;9.13;;;;;;;;;;4937895;29;20043;-70
2022/06/13 02:28:06;;;;;;;35.92;9.15;;;;;;;;;;4937186;29;20511;-70
2022/06/13 02:30:42;;;;;;;47.00;8.57;;;;;;;;;;4936551;29;20051;-70
2022/06/13 02:33:12;;;;;;;25.33;7.63;;;;;;;;;;4937117;29;20044;-70
2022/06/13 02:35:45;;;;;;;59.45;11.45;;;;;;;;;;4936676;29;20047;-70
2022/06/13 02:38:16;;;;;;;38.28;10.88;;;;;;;;;;4938876;28;20055;-70
2022/06/13 02:40:46;;;;;;;47.55;10.02;;;;;;;;;;4936614;29;20575;-69
2022/06/13 02:43:13;;;;;;;22.38;9.40;;;;;;;;;;4937660;29;20131;-74
2022/06/13 02:45:43;;;;;;;31.40;10.85;;;;;;;;;;4936725;29;20075;-68
2022/06/13 02:48:14;;;;;;;26.23;11.35;;;;;;;;;;4936926;29;20047;-69
2022/06/13 02:50:40;;;;;;;35.70;11.65;;;;;;;;;;4936502;29;20048;-72
2022/06/13 02:53:07;;;;;;;40.42;13.35;;;;;;;;;;4935165;29;20103;-73
2022/06/13 02:55:40;;;;;;;41.58;14.65;;;;;;;;;;4936680;29;20051;-74
2022/06/13 02:58:22;;;;;;;38.17;12.60;;;;;;;;;;4937239;29;20662;-74
2022/06/13 03:00:58;;;;;;;41.10;13.18;;;;;;;;;;4935980;29;20082;-72
2022/06/13 03:03:31;;;;;;;28.15;10.85;;;;;;;;;;4936588;29;20069;-71
2022/06/13 03:06:04;;;;;;;41.83;9.43;;;;;;;;;;4935781;29;20127;-71
2022/06/13 03:08:43;;;;;;;38.65;10.23;;;;;;;;;;4936162;29;20147;-68
2022/06/13 03:11:16;;;;;;;32.88;10.93;;;;;;;;;;4936157;29;20071;-68
2022/06/13 03:13:42;;;;;;;;;;;;;;;;;;4936969;29;20051;-69
2022/06/13 03:16:18;;;;;;;26.85;9.23;;;;;;;;;;4936845;29;19923;-68
2022/06/13 03:18:47;;;;;;;29.33;9.20;;;;;;;;;;4936192;29;20130;-68
2022/06/13 03:21:17;;;;;;;28.90;10.00;;;;;;;;;;4935606;29;20122;-68
2022/06/13 03:23:56;;;;;;;26.63;10.00;;;;;;;;;;4936583;29;20205;-71
2022/06/13 03:26:25;;;;;;;29.15;10.05;;;;;;;;;;4936189;29;20501;-71
2022/06/13 03:28:55;;;;;;;32.67;10.55;;;;;;;;;;4935943;29;20122;-73
2022/06/13 03:31:39;;;;;;;27.38;8.70;;;;;;;;;;4936770;29;20072;-73
2022/06/13 03:34:08;;;;;;;25.58;8.30;;;;;;;;;;4938910;29;20051;-72
2022/06/13 03:36:40;;;;;;;29.80;8.40;;;;;;;;;;4943861;29;20130;-72
2022/06/13 03:39:07;;;;;;;23.60;7.75;;;;;;;;;;4935861;29;20036;-72
2022/06/13 03:41:36;;;;;;;16.77;7.18;;;;;;;;;;4936082;29;20134;-73
2022/06/13 03:44:12;;;;;;;24.38;7.97;;;;;;;;;;4935664;29;20461;-73
2022/06/13 03:46:49;;;;;;;37.42;9.25;;;;;;;;;;4923500;29;20052;-75
2022/06/13 03:49:23;;;;;;;30.98;9.15;;;;;;;;;;4936337;29;20127;-75
2022/06/13 03:51:51;;;;;;;30.35;8.10;;;;;;;;;;4930783;29;20553;-74
2022/06/13 03:54:18;;;;;;;52.05;9.57;;;;;;;;;;4930920;29;20071;-75
2022/06/13 03:57:03;;;;;;;24.90;8.55;;;;;;;;;;4935758;29;20107;-75
2022/06/13 03:59:39;;;;;;;28.58;7.93;;;;;;;;;;4935412;29;20075;-72
2022/06/13 04:02:11;;;;;;;32.17;9.40;;;;;;;;;;4935647;29;20115;-76
2022/06/13 04:04:43;;;;;;;42.47;9.40;;;;;;;;;;4934807;29;20155;-72
2022/06/13 04:07:10;;;;;;;40.42;8.77;;;;;;;;;;4935895;29;20476;-73
2022/06/13 04:09:41;;;;;;;34.45;8.35;;;;;;;;;;4935418;29;20144;-71
2022/06/13 04:12:08;;;;;;;21.15;7.00;;;;;;;;;;4935540;29;20067;-71
2022/06/13 04:14:46;;;;;;;30.60;8.82;;;;;;;;;;4934733;29;20595;-72
2022/06/13 04:17:19;;;;;;;44.00;8.80;;;;;;;;;;4935782;29;20043;-68
2022/06/13 04:19:45;;;;;;;48.63;9.07;;;;;;;;;;4935404;29;20122;-69
2022/06/13 04:22:12;;;;;;;16.65;7.18;;;;;;;;;;4935974;29;20048;-69
2022/06/13 04:24:57;;;;;;;21.25;7.68;;;;;;;;;;4935313;29;20039;-69
2022/06/13 04:27:29;;;;;;;37.05;9.07;;;;;;;;;;4934991;29;20071;-76
2022/06/13 04:30:10;;;;;;;24.60;8.38;;;;;;;;;;4934759;29;20063;-75
2022/06/13 04:32:46;;;;;;;23.83;7.90;;;;;;;;;;4934910;29;20393;-73
2022/06/13 04:35:13;;;;;;;22.35;8.23;;;;;;;;;;4935148;29;20106;-73
2022/06/13 04:37:40;;;;;;;30.88;8.55;;;;;;;;;;4934644;29;20556;-77
2022/06/13 04:40:08;;;;;;;21.80;7.95;;;;;;;;;;4935273;29;20044;-70
2022/06/13 04:42:38;;;;;;;21.67;8.07;;;;;;;;;;4934736;29;20126;-70
2022/06/13 04:45:16;;;;;;;36.38;8.32;;;;;;;;;;4933339;29;20806;-78
2022/06/13 04:47:43;;;;;;;40.65;9.27;;;;;;;;;;4925274;29;20099;-78
2022/06/13 04:50:14;;;;;;;26.15;8.40;;;;;;;;;;4936219;29;20071;-70
2022/06/13 04:52:41;;;;;;;42.15;8.18;;;;;;;;;;4934594;29;20052;-70
2022/06/13 04:55:31;;;;;;;28.25;7.43;;;;;;;;;;4935638;29;20128;-70
2022/06/13 04:57:58;;;;;;;22.27;6.68;;;;;;;;;;4940187;29;20126;-71
2022/06/13 05:00:25;;;;;;;36.78;8.10;;;;;;;;;;4936923;29;20032;-70
2022/06/13 05:02:53;;;;;;;22.73;6.72;;;;;;;;;;4934683;29;20044;-68
2022/06/13 05:05:30;;;;;;;20.83;6.55;;;;;;;;;;4934573;29;20123;-69
2022/06/13 05:07:56;;;;;;;24.20;6.72;;;;;;;;;;4935695;29;20035;-76
2022/06/13 05:10:26;;;;;;;28.75;7.15;;;;;;;;;;4936314;29;20135;-76
2022/06/13 05:12:53;;;;;;;26.60;6.90;;;;;;;;;;4937486;29;20475;-75
2022/06/13 05:15:22;;;;;;;33.50;7.20;;;;;;;;;;4933248;29;20494;-74
2022/06/13 05:17:49;;;;;;;30.38;7.57;;;;;;;;;;4933968;29;20066;-71
2022/06/13 05:20:22;;;;;;;30.08;6.93;;;;;;;;;;4926899;29;20405;-72
2022/06/13 05:22:49;;;;;;;35.80;6.75;;;;;;;;;;4931224;29;20098;-76
2022/06/13 05:25:16;;;;;;;22.38;6.47;;;;;;;;;;4934544;29;20044;-71
2022/06/13 05:27:42;;;;;;;30.35;7.72;;;;;;;;;;4934206;29;20044;-68
2022/06/13 05:30:12;;;;;;;22.52;6.10;;;;;;;;;;4931764;29;20555;-68
2022/06/13 05:32:38;;;;;;;31.65;7.57;;;;;;;;;;4923576;29;20095;-68
2022/06/13 05:35:05;;;;;;;16.90;6.45;;;;;;;;;;4934039;29;20044;-68
2022/06/13 05:37:32;;;;;;;20.38;6.70;;;;;;;;;;4934377;29;20046;-68
2022/06/13 05:39:59;;;;;;;27.60;7.78;;;;;;;;;;4917308;29;20103;-67
2022/06/13 05:42:27;;;;;;;26.92;7.25;;;;;;;;;;4934632;29;20062;-67
2022/06/13 05:44:53;;;;;;;39.28;7.93;;;;;;;;;;4924769;29;20048;-67
2022/06/13 05:47:20;;;;;;;29.58;7.60;;;;;;;;;;4933766;29;20052;-66
2022/06/13 05:49:47;;;;;;;37.83;8.60;;;;;;;;;;4929968;29;20036;-69
2022/06/13 05:52:14;;;;;;;32.13;8.73;;;;;;;;;;4934027;29;20131;-69
2022/06/13 05:54:40;;;;;;;32.75;8.30;;;;;;;;;;4930711;29;20151;-67
2022/06/13 05:57:09;;;;;;;41.45;9.25;;;;;;;;;;4930999;29;20119;-68
2022/06/13 05:59:35;;;;;;;47.25;9.15;;;;;;;;;;4921338;29;20494;-69
2022/06/13 06:02:02;;;;;;;33.97;9.45;;;;;;;;;;4932350;29;20044;-69
2022/06/13 06:04:29;;;;;;;29.83;9.55;;;;;;;;;;4934517;29;20044;-69
2022/06/13 06:06:55;;;;;;;33.83;9.80;;;;;;;;;;4933322;29;20552;-69
2022/06/13 06:09:22;;;;;;;27.88;9.30;;;;;;;;;;4932085;29;20043;-69
2022/06/13 06:11:48;;;;;;;30.05;9.77;;;;;;;;;;4933051;29;20095;-69
2022/06/13 06:14:15;;;;;;;40.13;11.07;;;;;;;;;;4932922;29;20106;-69
2022/06/13 06:16:41;;;;;;;35.63;10.32;;;;;;;;;;4933308;29;20040;-69
2022/06/13 06:19:08;;;;;;;31.23;10.18;;;;;;;;;;4934017;29;20044;-69
2022/06/13 06:21:35;;;;;;;40.60;11.07;;;;;;;;;;4933099;29;20075;-69
2022/06/13 06:24:01;;;;;;;28.15;10.20;;;;;;;;;;4933449;29;20138;-69
2022/06/13 06:26:28;;;;;;;30.85;10.57;;;;;;;;;;4933928;29;20099;-69
2022/06/13 06:28:54;;;;;;;28.27;10.65;;;;;;;;;;4936969;29;20114;-70
2022/06/13 06:31:21;;;;;;;42.50;12.25;;;;;;;;;;4926593;29;20142;-69
2022/06/13 06:33:48;;;;;;;20.17;10.77;;;;;;;;;;4936482;29;20040;-69
2022/06/13 06:36:15;;;;;;;25.48;11.45;;;;;;;;;;4936774;29;20044;-71
2022/06/13 06:38:41;;;;;;;31.65;12.02;;;;;;;;;;4936736;29;20047;-70
2022/06/13 06:41:08;;;;;;;28.77;12.23;;;;;;;;;;4936759;29;20837;-70
2022/06/13 06:43:35;;;;;;;28.10;12.02;;;;;;;;;;4936945;29;20047;-70
2022/06/13 06:46:01;;;;;;;45.53;13.63;;;;;;;;;;4939255;29;20119;-70
2022/06/13 06:48:28;;;;;;;66.93;15.27;;;;;;;;;;4932491;29;20050;-69
2022/06/13 06:50:55;;;;;;;50.67;13.95;;;;;;;;;;4936034;29;20127;-70
2022/06/13 06:53:23;;;;;;;40.97;13.32;;;;;;;;;;4936917;29;20055;-70
2022/06/13 07:01:27;;;;;;;47.67;13.65;;;;;;;;;;4927193;29;20040;-70
2022/06/13 07:03:53;;;;;;;78.35;17.50;;;;;;;;;;4928975;29;20036;-70
2022/06/13 07:06:20;;;;;;;33.30;11.98;;;;;;;;;;4929531;29;20044;-70
2022/06/13 07:08:47;;;;;;;32.45;11.93;;;;;;;;;;4926075;29;20996;-68
2022/06/13 07:14:08;;;;;;;33.05;12.18;;;;;;;;;;4936116;29;20072;-70
2022/06/13 07:16:34;;;;;;;30.25;11.52;;;;;;;;;;4936602;29;20151;-67
2022/06/13 07:19:01;;;;;;;22.45;10.45;;;;;;;;;;4936775;29;20059;-69
2022/06/13 07:21:27;;;;;;;25.42;10.45;;;;;;;;;;4935794;29;20127;-67
2022/06/13 07:23:54;;;;;;;28.60;10.88;;;;;;;;;;4935907;29;20047;-67
2022/06/13 07:26:20;;;;;;;33.75;10.77;;;;;;;;;;4936239;29;20035;-68
2022/06/13 07:28:53;;;;;;;44.83;12.10;;;;;;;;;;4930043;29;20051;-67
2022/06/13 07:31:21;;;;;;;24.85;9.65;;;;;;;;;;4936709;29;20071;-68
2022/06/13 07:33:49;;;;;;;17.27;8.63;;;;;;;;;;4935386;29;20523;-67
2022/06/13 07:36:16;;;;;;;24.52;9.77;;;;;;;;;;4932312;29;20043;-68
2022/06/13 07:38:43;;;;;;;34.50;8.73;;;;;;;;;;4934569;29;20190;-67
2022/06/13 07:41:15;;;;;;;31.42;8.95;;;;;;;;;;4927246;29;20084;-67
2022/06/13 07:43:43;;;;;;;33.53;9.43;;;;;;;;;;4935459;29;20056;-68
2022/06/13 07:46:10;;;;;;;21.52;8.85;;;;;;;;;;4935755;29;20067;-67
2022/06/13 07:48:37;;;;;;;25.83;8.38;;;;;;;;;;4934829;29;20142;-67
2022/06/13 07:51:05;;;;;;;40.40;8.98;;;;;;;;;;4934372;29;20547;-67
2022/06/13 07:53:33;;;;;;;18.73;8.00;;;;;;;;;;4935375;29;20053;-68
2022/06/13 07:56:21;;;;;;;41.58;8.90;;;;;;;;;;4935109;29;20039;-68
2022/06/13 07:58:49;;;;;;;34.22;8.68;;;;;;;;;;4934642;29;20138;-68
2022/06/13 08:01:16;;;;;;;44.78;9.45;;;;;;;;;;4935310;29;20076;-67
2022/06/13 08:03:43;;;;;;;29.08;8.38;;;;;;;;;;4934623;29;20056;-69
2022/06/13 08:06:10;;;;;;;32.58;8.93;;;;;;;;;;4934206;29;20079;-66
2022/06/13 08:08:40;;;;;;;29.58;8.13;;;;;;;;;;4932333;29;20051;-67
2022/06/13 08:11:08;;;;;;;36.42;7.80;;;;;;;;;;4934332;29;20044;-66
2022/06/13 08:13:36;;;;;;;28.40;7.38;;;;;;;;;;4933198;29;20126;-66
2022/06/13 08:16:03;;;;;;;30.45;7.60;;;;;;;;;;4933391;29;20043;-66
2022/06/13 08:18:30;;;;;;;49.75;9.02;;;;;;;;;;4934779;29;20415;-66
2022/06/13 08:20:56;;;;;;;36.40;7.50;;;;;;;;;;4935090;29;20091;-66
2022/06/13 08:23:23;;;;;;;16.58;5.85;;;;;;;;;;4935236;29;20115;-66
2022/06/13 08:25:50;;;;;;;43.53;8.20;;;;;;;;;;4934675;29;20054;-66
2022/06/13 08:28:16;;;;;;;22.80;5.47;;;;;;;;;;4935996;29;20115;-66
2022/06/13 08:30:58;;;;;;;16.55;5.18;;;;;;;;;;4934863;29;20054;-67
2022/06/13 08:33:25;;;;;;;28.00;5.80;;;;;;;;;;4934693;29;20071;-66
2022/06/13 08:35:52;;;;;;;57.72;7.93;;;;;;;;;;4933922;29;20479;-67
2022/06/13 08:38:19;;;;;;;26.55;5.15;;;;;;;;;;4931993;29;20047;-66
2022/06/13 08:40:46;;;;;;;27.17;5.15;;;;;;;;;;4932285;29;20048;-66
2022/06/13 08:43:19;;;;;;;20.77;4.95;;;;;;;;;;4935130;29;20048;-66
2022/06/13 08:45:48;;;;;;;22.17;5.00;;;;;;;;;;4934537;29;20067;-66
2022/06/13 08:48:14;;;;;;;15.05;4.03;;;;;;;;;;4934655;29;20047;-66
2022/06/13 08:50:41;;;;;;;44.58;5.60;;;;;;;;;;4934183;29;20043;-65
2022/06/13 08:53:15;;;;;;;18.60;4.00;;;;;;;;;;4934326;29;20071;-65
2022/06/13 08:55:47;;;;;;;23.10;4.45;;;;;;;;;;4934746;29;20051;-66
2022/06/13 08:58:33;;;;;;;21.10;4.97;;;;;;;;;;4934948;29;20054;-65
2022/06/13 09:01:18;;;;;;;20.42;4.07;;;;;;;;;;4934027;29;20067;-67
2022/06/13 09:03:59;;;;;;;27.80;4.68;;;;;;;;;;4933955;29;20043;-66
2022/06/13 09:06:29;;;;;;;20.17;4.13;;;;;;;;;;4933993;29;20094;-67
2022/06/13 09:08:59;;;;;;;14.25;3.67;;;;;;;;;;4934237;29;20058;-66
2022/06/13 09:11:44;;;;;;;21.58;4.32;;;;;;;;;;4934275;29;20051;-66
2022/06/13 09:14:27;;;;;;;16.65;3.90;;;;;;;;;;4934103;29;20040;-66
2022/06/13 09:16:54;;;;;;;;;;;;;;;;;;4934551;29;20553;-66
2022/06/13 09:19:26;;;;;;;19.25;4.18;;;;;;;;;;4934771;29;20314;-67
2022/06/13 09:22:01;;;;;;;25.20;4.13;;;;;;;;;;4932364;29;20134;-65
2022/06/13 09:24:32;;;;;;;15.65;3.78;;;;;;;;;;4930806;29;20043;-65
2022/06/13 09:27:02;;;;;;;21.25;3.92;;;;;;;;;;4926130;29;20040;-65
2022/06/13 09:29:36;;;;;;;18.52;3.60;;;;;;;;;;4934208;29;20476;-66
2022/06/13 09:32:03;;;;;;;21.55;3.70;;;;;;;;;;4933934;29;20178;-66
2022/06/13 09:34:41;;;;;;;23.25;4.38;;;;;;;;;;4934408;29;20055;-66
2022/06/13 09:37:10;;;;;;;19.95;4.38;;;;;;;;;;4933758;29;20114;-66
2022/06/13 09:39:37;;;;;;;13.95;4.25;;;;;;;;;;4933883;29;20043;-66
2022/06/13 09:42:27;;;;;;;14.40;3.58;;;;;;;;;;4933799;29;20079;-66
2022/06/13 09:44:55;;;;;;;28.30;4.53;;;;;;;;;;4933795;29;20134;-66
2022/06/13 09:47:29;;;;;;;11.48;3.83;;;;;;;;;;4933851;29;20047;-66
2022/06/13 09:49:55;;;;;;;;;;;;;;;;;;4934395;29;20071;-66
2022/06/13 09:52:40;;;;;;;41.55;5.85;;;;;;;;;;4933750;29;19927;-66
2022/06/13 09:55:21;;;;;;;20.40;4.38;;;;;;;;;;4921662;29;20063;-66
2022/06/13 09:57:58;;;;;;;19.38;4.57;;;;;;;;;;4921537;29;20514;-66
2022/06/13 10:00:35;;;;;;;27.80;4.85;;;;;;;;;;4928782;29;20098;-66
2022/06/13 10:03:21;;;;;;;27.35;4.95;;;;;;;;;;4937108;29;20110;-66
2022/06/13 10:05:47;;;;;;;1925.97;302.02;;;;;;;;;;4937346;29;20067;-66
2022/06/13 10:08:16;;;;;;;423.85;54.85;;;;;;;;;;4937465;29;20039;-67
2022/06/13 10:11:03;;;;;;;77.15;12.00;;;;;;;;;;4937623;29;20039;-67
2022/06/13 10:13:36;;;;;;;21.92;5.00;;;;;;;;;;4938301;29;20104;-67
2022/06/13 10:16:02;;;;;;;23.17;5.97;;;;;;;;;;4937575;29;20043;-67
2022/06/13 10:18:55;;;;;;;42.35;6.38;;;;;;;;;;4937153;29;20047;-67
2022/06/13 10:21:30;;;;;;;27.20;5.57;;;;;;;;;;4935602;29;20051;-66
2022/06/13 10:23:56;;;;;;;19.02;5.65;;;;;;;;;;4937617;29;20051;-66
2022/06/13 10:26:26;;;;;;;26.63;5.72;;;;;;;;;;4924718;29;20068;-67
2022/06/13 10:29:05;;;;;;;32.80;6.55;;;;;;;;;;4937239;29;20460;-67
2022/06/13 10:31:35;;;;;;;13.25;5.38;;;;;;;;;;4937826;29;20066;-67
2022/06/13 10:34:01;;;;;;;45.25;7.45;;;;;;;;;;4937046;29;20043;-68
2022/06/13 10:36:28;;;;;;;25.13;5.18;;;;;;;;;;4936599;29;20051;-67
2022/06/13 10:38:57;;;;;;;16.60;4.28;;;;;;;;;;4936977;29;20763;-67
2022/06/13 10:41:25;;;;;;;25.58;5.55;;;;;;;;;;4936959;29;20147;-67
2022/06/13 10:43:51;;;;;;;41.75;7.10;;;;;;;;;;4936922;29;20128;-68
2022/06/13 10:46:18;;;;;;;18.30;5.15;;;;;;;;;;4938057;29;20055;-68
2022/06/13 10:48:48;;;;;;;47.40;6.85;;;;;;;;;;4936462;29;20051;-68
2022/06/13 10:51:14;;;;;;;25.08;5.68;;;;;;;;;;4936579;29;20497;-68
2022/06/13 10:53:41;;;;;;;13.32;4.72;;;;;;;;;;4937119;29;20109;-68
2022/06/13 10:56:11;;;;;;;22.00;4.80;;;;;;;;;;4936853;29;20482;-68
2022/06/13 10:58:48;;;;;;;36.88;6.20;;;;;;;;;;4937265;29;20058;-68
2022/06/13 11:01:16;;;;;;;16.15;4.22;;;;;;;;;;4936879;29;20043;-68
2022/06/13 11:03:56;;;;;;;23.50;4.70;;;;;;;;;;4936383;29;20048;-68
2022/06/13 11:06:32;;;;;;;19.65;4.85;;;;;;;;;;4936362;29;20039;-68
2022/06/13 11:53:44;;;;;;;35.00;4.88;;;;;;;;;;5127577;27;20391;-70
2022/06/13 11:56:14;;;;;;;22.73;4.15;;;;;;;;;;5124497;28;20049;-67
2022/06/13 11:58:45;;;;;;;27.08;4.13;;;;;;;;;;5124509;27;20035;-67
2022/06/13 12:01:16;;;;;;;43.13;4.85;;;;;;;;;;5123787;27;20037;-67
2022/06/13 12:03:48;;;;;;;20.67;3.72;;;;;;;;;;5124611;27;20618;-66
2022/06/13 12:06:16;;;;;;;12.50;3.63;;;;;;;;;;5124760;27;20335;-66
2022/06/13 12:08:47;;;;;;;27.42;4.88;;;;;;;;;;5124592;28;20460;-66
2022/06/13 12:11:14;;;;;;;50.83;5.78;;;;;;;;;;5124276;28;20394;-67
2022/06/13 12:13:43;;;;;;;34.67;4.38;;;;;;;;;;5123737;27;20049;-66
2022/06/13 12:16:20;;;;;;;14.07;3.50;;;;;;;;;;5124195;27;20049;-66
2022/06/13 12:18:49;;;;;;;44.70;5.05;;;;;;;;;;5123925;27;20092;-66
2022/06/13 12:21:34;;;;;;;14.00;3.15;;;;;;;;;;5102565;27;20119;-67
2022/06/13 12:24:08;;;;;;;26.00;4.00;;;;;;;;;;5110735;28;20485;-67
2022/06/13 12:26:35;;;;;;;17.00;3.38;;;;;;;;;;5098832;28;20408;-67
2022/06/13 12:29:29;;;;;;;15.95;3.53;;;;;;;;;;5095647;28;20036;-67
2022/06/13 12:31:59;;;;;;;19.05;4.00;;;;;;;;;;5097062;28;20043;-67
2022/06/13 12:34:26;;;;;;;36.55;5.45;;;;;;;;;;5110044;28;20392;-67
2022/06/13 12:36:52;;;;;;;64.15;6.57;;;;;;;;;;5106300;28;20060;-67
2022/06/13 12:39:22;;;;;;;33.97;4.72;;;;;;;;;;5093579;28;20413;-67
2022/06/13 12:41:57;;;;;;;42.28;6.22;;;;;;;;;;5094306;28;20040;-67
2022/06/13 12:44:44;;;;;;;30.10;4.88;;;;;;;;;;5111984;28;20040;-67
2022/06/13 12:47:23;;;;;;;22.38;5.35;;;;;;;;;;5086670;28;20071;-67
2022/06/13 12:49:50;;;;;;;43.53;4.78;;;;;;;;;;5084887;28;20125;-67
2022/06/13 12:52:26;;;;;;;5.55;1.58;;;;;;;;;;5078577;28;20131;-71
2022/06/13 12:55:01;;;;;;;29.35;2.72;;;;;;;;;;5086905;28;20048;-67
2022/06/13 12:57:46;;;;;;;27.33;2.22;;;;;;;;;;5057722;28;20094;-67
2022/06/13 13:00:17;;;;;;;29.80;2.97;;;;;;;;;;5087566;28;20497;-69
2022/06/13 13:03:02;;;;;;;33.83;3.70;;;;;;;;;;5071772;28;20048;-68
2022/06/13 13:05:34;;;;;;;33.33;4.25;;;;;;;;;;5087044;28;20658;-65
2022/06/13 13:08:10;;;;;;;14.82;3.15;;;;;;;;;;5084529;28;20044;-67
2022/06/13 13:10:40;;;;;;;40.33;4.63;;;;;;;;;;5086430;28;20071;-66
2022/06/13 13:13:19;;;;;;;23.88;3.58;;;;;;;;;;5086046;28;20048;-67
2022/06/13 13:15:51;;;;;;;35.53;6.00;;;;;;;;;;5069866;28;20122;-68
2022/06/13 13:18:18;;;;;;;70.68;8.85;;;;;;;;;;5086555;28;20096;-67
2022/06/13 13:20:48;;;;;;;24.92;6.85;;;;;;;;;;5071203;28;20127;-68
2022/06/13 13:23:14;;;;;;;35.70;7.05;;;;;;;;;;5088163;28;20075;-68
2022/06/13 13:25:59;;;;;;;47.28;8.85;;;;;;;;;;5108656;28;20115;-69
2022/06/13 13:28:44;;;;;;;51.15;12.02;;;;;;;;;;5109248;28;20119;-69
2022/06/13 13:31:11;;;;;;;43.40;8.32;;;;;;;;;;5108473;28;20048;-71
2022/06/13 13:33:37;;;;;;;45.80;2.75;;;;;;;;;;5105778;28;20074;-69
2022/06/13 13:36:04;;;;;;;54.97;3.25;;;;;;;;;;5108565;28;20047;-70
2022/06/13 13:38:35;;;;;;;34.05;2.08;;;;;;;;;;5110849;28;20047;-71
2022/06/13 13:41:09;;;;;;;7.07;0.50;;;;;;;;;;5119857;27;20051;-72
2022/06/13 13:43:43;;;;;;;29.77;1.83;;;;;;;;;;5108426;28;20070;-72
2022/06/13 13:46:21;;;;;;;12.13;0.80;;;;;;;;;;5108950;28;20036;-71
2022/06/13 13:49:10;;;;;;;5.47;0.70;;;;;;;;;;5108545;28;20067;-72
2022/06/13 13:51:39;;;;;;;16.75;1.13;;;;;;;;;;5108020;28;20156;-73
2022/06/13 13:54:08;;;;;;;14.63;0.98;;;;;;;;;;5109867;28;20135;-72
2022/06/13 13:56:44;;;;;;;8.75;0.82;;;;;;;;;;5111902;28;20067;-71
2022/06/13 13:59:13;;;;;;;18.15;1.17;;;;;;;;;;5108319;28;20071;-71
2022/06/13 14:01:42;;;;;;;22.58;1.40;;;;;;;;;;5108415;28;20505;-72
2022/06/13 14:04:11;;;;;;;11.75;0.77;;;;;;;;;;5108119;27;20446;-72
2022/06/13 14:06:38;;;;;;;24.23;1.58;;;;;;;;;;5108219;28;20107;-69
2022/06/13 14:09:06;;;;;;;39.00;2.25;;;;;;;;;;5110562;28;20454;-70
2022/06/13 14:11:53;;;;;;;30.95;1.80;;;;;;;;;;5110688;28;20127;-71
2022/06/13 14:14:19;;;;;;;23.40;1.45;;;;;;;;;;5109086;28;20044;-70
2022/06/13 14:16:47;;;;;;;20.02;1.25;;;;;;;;;;5107914;28;20412;-70
2022/06/13 14:19:16;;;;;;;10.45;0.75;;;;;;;;;;5105646;28;20039;-69
2022/06/13 14:21:43;;;;;;;18.92;1.15;;;;;;;;;;5095456;28;20474;-69
2022/06/13 14:24:11;;;;;;;23.45;1.33;;;;;;;;;;5109199;28;20048;-68
2022/06/13 14:26:44;;;;;;;20.65;1.83;;;;;;;;;;5094723;28;20808;-70
2022/06/13 14:29:13;;;;;;;25.67;1.52;;;;;;;;;;5090868;28;20040;-69
2022/06/13 14:31:53;;;;;;;24.23;1.75;;;;;;;;;;5094408;28;20123;-70
2022/06/13 14:35:18;;;;;;;35.13;2.13;;;;;;;;;;5093958;28;20032;-70
2022/06/13 14:37:25;;;;;;;35.33;2.08;;;;;;;;;;5086239;28;20075;-71
2022/06/13 14:39:58;;;;;;;15.70;1.58;;;;;;;;;;5094707;28;20052;-71
2022/06/13 14:42:32;;;;;;;18.00;1.02;;;;;;;;;;5107724;28;20546;-69
2022/06/13 14:44:58;;;;;;;;;;;;;;;;;;5111131;28;20044;-68
2022/06/13 14:47:43;;;;;;;49.25;2.83;;;;;;;;;;5109372;28;19974;-69
2022/06/13 14:50:10;;;;;;;16.00;1.02;;;;;;;;;;5107084;28;20396;-68
2022/06/13 14:52:37;;;;;;;15.40;1.33;;;;;;;;;;5107189;28;20083;-66
2022/06/13 14:55:03;;;;;;;43.65;3.00;;;;;;;;;;5105980;28;20051;-71
2022/06/13 14:57:32;;;;;;;25.23;1.50;;;;;;;;;;5092936;28;20056;-71
2022/06/13 15:00:01;;;;;;;26.75;1.60;;;;;;;;;;5110614;28;20126;-71
2022/06/13 15:02:28;;;;;;;21.35;1.27;;;;;;;;;;5109449;28;20046;-71
2022/06/13 15:05:04;;;;;;;22.13;1.30;;;;;;;;;;5099341;28;20516;-71
2022/06/13 15:07:37;;;;;;;27.92;1.67;;;;;;;;;;5100816;28;20081;-71
2022/06/13 15:10:14;;;;;;;16.30;0.98;;;;;;;;;;5109143;28;20424;-71
2022/06/13 15:12:43;;;;;;;16.30;1.13;;;;;;;;;;5107030;28;20458;-70
2022/06/13 15:15:20;;;;;;;30.83;2.05;;;;;;;;;;5108791;28;20044;-70
2022/06/13 15:17:47;;;;;;;10.95;0.98;;;;;;;;;;5107568;28;20503;-71
2022/06/13 15:20:16;;;;;;;31.45;2.60;;;;;;;;;;5096943;28;20513;-70
2022/06/13 15:22:51;;;;;;;34.00;2.35;;;;;;;;;;5102155;28;20059;-70
2022/06/13 15:25:33;;;;;;;43.15;2.78;;;;;;;;;;5105006;28;20044;-70
2022/06/13 15:28:00;;;;;;;35.50;2.08;;;;;;;;;;5103398;28;20097;-70
2022/06/13 15:30:32;;;;;;;52.35;3.95;;;;;;;;;;5105331;28;20120;-71
2022/06/13 15:33:21;;;;;;;50.92;2.88;;;;;;;;;;5108786;28;20075;-71
2022/06/13 15:35:53;;;;;;;34.17;1.90;;;;;;;;;;5106584;28;20059;-72
2022/06/13 15:38:29;;;;;;;10.23;0.75;;;;;;;;;;5107469;28;20051;-72
2022/06/13 15:40:58;;;;;;;10.05;0.65;;;;;;;;;;5088976;28;20561;-72
2022/06/13 15:43:45;;;;;;;26.05;2.17;;;;;;;;;;5105303;28;20127;-72
2022/06/13 15:46:33;;;;;;;11.23;0.77;;;;;;;;;;5106860;28;20044;-70
2022/06/13 15:49:02;;;;;;;19.63;1.40;;;;;;;;;;5106958;28;20047;-71